sensor_id;sensor_type;location;lat;lon;timestamp;P1;durP1;ratioP1;P2;durP2;ratioP2
20884;SDS011;10602;48.000;9.654;2023-05-14T00:01:55;7.10;;;6.40;;
20884;SDS011;10602;48.000;9.654;2023-05-14T00:04:23;8.00;;;7.30;;
20884;SDS011;10602;48.000;9.654;2023-05-14T00:06:50;7.50;;;6.80;;
20884;SDS011;10602;48.000;9.654;2023-05-14T00:09:18;7.20;;;6.50;;
20884;SDS011;10602;48.000;9.654;2023-05-14T00:11:45;7.33;;;6.63;;
20884;SDS011;10602;48.000;9.654;2023-05-14T00:14:13;6.77;;;6.00;;
20884;SDS011;10602;48.000;9.654;2023-05-14T00:16:41;6.60;;;6.00;;
20884;SDS011;10602;48.000;9.654;2023-05-14T00:19:08;6.80;;;6.07;;
20884;SDS011;10602;48.000;9.654;2023-05-14T00:21:36;6.57;;;5.97;;
20884;SDS011;10602;48.000;9.654;2023-05-14T00:24:03;6.50;;;5.80;;
20884;SDS011;10602;48.000;9.654;2023-05-14T00:26:31;6.33;;;5.73;;
20884;SDS011;10602;48.000;9.654;2023-05-14T00:28:58;6.43;;;5.83;;
20884;SDS011;10602;48.000;9.654;2023-05-14T00:31:26;6.50;;;5.90;;
20884;SDS011;10602;48.000;9.654;2023-05-14T00:33:53;5.80;;;5.20;;
20884;SDS011;10602;48.000;9.654;2023-05-14T00:36:21;6.70;;;5.60;;
20884;SDS011;10602;48.000;9.654;2023-05-14T00:38:48;5.50;;;4.93;;
20884;SDS011;10602;48.000;9.654;2023-05-14T00:41:16;7.57;;;5.33;;
20884;SDS011;10602;48.000;9.654;2023-05-14T00:43:43;6.83;;;5.50;;
20884;SDS011;10602;48.000;9.654;2023-05-14T00:46:11;6.80;;;5.40;;
20884;SDS011;10602;48.000;9.654;2023-05-14T00:48:39;5.77;;;5.17;;
20884;SDS011;10602;48.000;9.654;2023-05-14T00:51:07;6.43;;;5.83;;
20884;SDS011;10602;48.000;9.654;2023-05-14T00:53:35;7.13;;;6.43;;
20884;SDS011;10602;48.000;9.654;2023-05-14T00:56:03;6.73;;;6.03;;
20884;SDS011;10602;48.000;9.654;2023-05-14T00:58:31;6.50;;;5.80;;
20884;SDS011;10602;48.000;9.654;2023-05-14T01:00:59;6.83;;;6.13;;
20884;SDS011;10602;48.000;9.654;2023-05-14T01:03:26;6.60;;;6.00;;
20884;SDS011;10602;48.000;9.654;2023-05-14T01:09:07;7.60;;;6.67;;
20884;SDS011;10602;48.000;9.654;2023-05-14T01:14:33;7.37;;;6.30;;
20884;SDS011;10602;48.000;9.654;2023-05-14T01:17:06;6.90;;;6.20;;
20884;SDS011;10602;48.000;9.654;2023-05-14T01:22:07;7.37;;;6.40;;
20884;SDS011;10602;48.000;9.654;2023-05-14T01:24:35;7.77;;;6.70;;
20884;SDS011;10602;48.000;9.654;2023-05-14T01:27:07;7.77;;;6.97;;
20884;SDS011;10602;48.000;9.654;2023-05-14T01:29:33;7.57;;;6.77;;
20884;SDS011;10602;48.000;9.654;2023-05-14T01:32:04;8.07;;;7.10;;
20884;SDS011;10602;48.000;9.654;2023-05-14T01:34:34;7.43;;;6.73;;
20884;SDS011;10602;48.000;9.654;2023-05-14T01:37:03;8.03;;;7.23;;
20884;SDS011;10602;48.000;9.654;2023-05-14T01:39:32;7.87;;;7.07;;
20884;SDS011;10602;48.000;9.654;2023-05-14T01:42:02;8.60;;;7.70;;
20884;SDS011;10602;48.000;9.654;2023-05-14T01:44:31;7.93;;;7.03;;
20884;SDS011;10602;48.000;9.654;2023-05-14T01:46:59;8.10;;;7.30;;
20884;SDS011;10602;48.000;9.654;2023-05-14T01:49:26;7.87;;;7.10;;
20884;SDS011;10602;48.000;9.654;2023-05-14T01:51:54;8.67;;;7.43;;
20884;SDS011;10602;48.000;9.654;2023-05-14T01:54:21;8.97;;;7.00;;
20884;SDS011;10602;48.000;9.654;2023-05-14T01:56:50;8.23;;;7.03;;
20884;SDS011;10602;48.000;9.654;2023-05-14T01:59:17;8.53;;;6.93;;
20884;SDS011;10602;48.000;9.654;2023-05-14T02:01:45;7.80;;;7.07;;
20884;SDS011;10602;48.000;9.654;2023-05-14T02:04:14;8.80;;;7.67;;
20884;SDS011;10602;48.000;9.654;2023-05-14T02:06:41;9.03;;;7.60;;
20884;SDS011;10602;48.000;9.654;2023-05-14T02:09:09;8.87;;;7.90;;
20884;SDS011;10602;48.000;9.654;2023-05-14T02:11:36;8.90;;;8.00;;
20884;SDS011;10602;48.000;9.654;2023-05-14T02:14:04;8.87;;;8.03;;
20884;SDS011;10602;48.000;9.654;2023-05-14T02:16:31;8.43;;;7.53;;
20884;SDS011;10602;48.000;9.654;2023-05-14T02:18:59;10.47;;;8.67;;
20884;SDS011;10602;48.000;9.654;2023-05-14T02:21:26;9.93;;;8.20;;
20884;SDS011;10602;48.000;9.654;2023-05-14T02:23:54;9.93;;;8.43;;
20884;SDS011;10602;48.000;9.654;2023-05-14T02:26:21;10.13;;;8.90;;
20884;SDS011;10602;48.000;9.654;2023-05-14T02:28:49;9.90;;;8.07;;
20884;SDS011;10602;48.000;9.654;2023-05-14T02:31:16;10.23;;;8.90;;
20884;SDS011;10602;48.000;9.654;2023-05-14T02:33:44;9.90;;;8.90;;
20884;SDS011;10602;48.000;9.654;2023-05-14T02:36:11;9.23;;;8.33;;
20884;SDS011;10602;48.000;9.654;2023-05-14T02:38:39;9.80;;;8.80;;
20884;SDS011;10602;48.000;9.654;2023-05-14T02:41:06;12.03;;;9.33;;
20884;SDS011;10602;48.000;9.654;2023-05-14T02:43:34;11.33;;;9.00;;
20884;SDS011;10602;48.000;9.654;2023-05-14T02:46:01;9.83;;;8.83;;
20884;SDS011;10602;48.000;9.654;2023-05-14T02:48:29;9.70;;;8.70;;
20884;SDS011;10602;48.000;9.654;2023-05-14T02:50:56;10.73;;;9.00;;
20884;SDS011;10602;48.000;9.654;2023-05-14T02:53:24;11.37;;;8.97;;
20884;SDS011;10602;48.000;9.654;2023-05-14T02:55:51;9.80;;;8.80;;
20884;SDS011;10602;48.000;9.654;2023-05-14T02:58:19;10.27;;;8.83;;
20884;SDS011;10602;48.000;9.654;2023-05-14T03:00:46;13.53;;;9.67;;
20884;SDS011;10602;48.000;9.654;2023-05-14T03:03:14;10.37;;;9.13;;
20884;SDS011;10602;48.000;9.654;2023-05-14T03:05:41;10.77;;;9.50;;
20884;SDS011;10602;48.000;9.654;2023-05-14T03:08:09;11.47;;;9.80;;
20884;SDS011;10602;48.000;9.654;2023-05-14T03:10:36;11.83;;;9.07;;
20884;SDS011;10602;48.000;9.654;2023-05-14T03:13:04;11.10;;;9.90;;
20884;SDS011;10602;48.000;9.654;2023-05-14T03:15:31;11.30;;;9.67;;
20884;SDS011;10602;48.000;9.654;2023-05-14T03:17:59;12.30;;;10.37;;
20884;SDS011;10602;48.000;9.654;2023-05-14T03:20:26;10.57;;;9.10;;
20884;SDS011;10602;48.000;9.654;2023-05-14T03:22:54;11.97;;;9.70;;
20884;SDS011;10602;48.000;9.654;2023-05-14T03:25:21;13.90;;;9.70;;
20884;SDS011;10602;48.000;9.654;2023-05-14T03:27:49;9.87;;;8.87;;
20884;SDS011;10602;48.000;9.654;2023-05-14T03:30:17;9.87;;;8.60;;
20884;SDS011;10602;48.000;9.654;2023-05-14T03:32:44;10.30;;;8.70;;
20884;SDS011;10602;48.000;9.654;2023-05-14T03:35:12;11.83;;;8.70;;
20884;SDS011;10602;48.000;9.654;2023-05-14T03:37:39;9.27;;;8.37;;
20884;SDS011;10602;48.000;9.654;2023-05-14T03:40:07;11.97;;;9.23;;
20884;SDS011;10602;48.000;9.654;2023-05-14T03:42:35;12.17;;;9.20;;
20884;SDS011;10602;48.000;9.654;2023-05-14T03:45:02;9.27;;;8.27;;
20884;SDS011;10602;48.000;9.654;2023-05-14T03:47:30;9.23;;;8.23;;
20884;SDS011;10602;48.000;9.654;2023-05-14T03:49:57;8.37;;;7.50;;
20884;SDS011;10602;48.000;9.654;2023-05-14T03:52:25;10.37;;;8.77;;
20884;SDS011;10602;48.000;9.654;2023-05-14T03:54:52;9.30;;;8.30;;
20884;SDS011;10602;48.000;9.654;2023-05-14T03:57:20;8.70;;;7.70;;
20884;SDS011;10602;48.000;9.654;2023-05-14T03:59:48;9.13;;;8.23;;
20884;SDS011;10602;48.000;9.654;2023-05-14T04:02:15;8.87;;;7.93;;
20884;SDS011;10602;48.000;9.654;2023-05-14T04:04:43;9.00;;;8.07;;
20884;SDS011;10602;48.000;9.654;2023-05-14T04:07:10;9.50;;;8.10;;
20884;SDS011;10602;48.000;9.654;2023-05-14T04:09:38;8.93;;;8.03;;
20884;SDS011;10602;48.000;9.654;2023-05-14T04:12:05;10.00;;;8.17;;
20884;SDS011;10602;48.000;9.654;2023-05-14T04:14:33;9.90;;;8.33;;
20884;SDS011;10602;48.000;9.654;2023-05-14T04:17:01;9.17;;;7.47;;
20884;SDS011;10602;48.000;9.654;2023-05-14T04:19:28;10.83;;;8.70;;
20884;SDS011;10602;48.000;9.654;2023-05-14T04:21:56;10.00;;;8.33;;
20884;SDS011;10602;48.000;9.654;2023-05-14T04:24:23;10.20;;;8.80;;
20884;SDS011;10602;48.000;9.654;2023-05-14T04:26:51;10.80;;;8.60;;
20884;SDS011;10602;48.000;9.654;2023-05-14T04:29:18;9.93;;;8.63;;
20884;SDS011;10602;48.000;9.654;2023-05-14T04:31:46;10.27;;;8.73;;
20884;SDS011;10602;48.000;9.654;2023-05-14T04:34:14;10.03;;;8.50;;
20884;SDS011;10602;48.000;9.654;2023-05-14T04:36:42;11.00;;;8.23;;
20884;SDS011;10602;48.000;9.654;2023-05-14T04:39:10;9.47;;;8.30;;
20884;SDS011;10602;48.000;9.654;2023-05-14T04:41:37;10.50;;;8.03;;
20884;SDS011;10602;48.000;9.654;2023-05-14T04:44:05;9.30;;;8.40;;
20884;SDS011;10602;48.000;9.654;2023-05-14T04:46:32;10.00;;;8.73;;
20884;SDS011;10602;48.000;9.654;2023-05-14T04:49:00;9.30;;;8.30;;
20884;SDS011;10602;48.000;9.654;2023-05-14T04:51:27;10.07;;;8.47;;
20884;SDS011;10602;48.000;9.654;2023-05-14T04:53:56;12.50;;;10.10;;
20884;SDS011;10602;48.000;9.654;2023-05-14T04:56:24;11.53;;;9.67;;
20884;SDS011;10602;48.000;9.654;2023-05-14T04:58:51;10.73;;;9.53;;
20884;SDS011;10602;48.000;9.654;2023-05-14T05:01:19;12.37;;;9.80;;
20884;SDS011;10602;48.000;9.654;2023-05-14T05:03:47;13.83;;;12.17;;
20884;SDS011;10602;48.000;9.654;2023-05-14T05:06:14;12.57;;;10.87;;
20884;SDS011;10602;48.000;9.654;2023-05-14T05:08:42;12.33;;;10.90;;
20884;SDS011;10602;48.000;9.654;2023-05-14T05:11:09;12.17;;;10.17;;
20884;SDS011;10602;48.000;9.654;2023-05-14T05:13:37;12.57;;;11.27;;
20884;SDS011;10602;48.000;9.654;2023-05-14T05:16:04;14.87;;;12.77;;
20884;SDS011;10602;48.000;9.654;2023-05-14T05:18:32;13.60;;;11.40;;
20884;SDS011;10602;48.000;9.654;2023-05-14T05:20:59;13.73;;;11.80;;
20884;SDS011;10602;48.000;9.654;2023-05-14T05:23:27;14.33;;;11.27;;
20884;SDS011;10602;48.000;9.654;2023-05-14T05:25:54;14.60;;;11.87;;
20884;SDS011;10602;48.000;9.654;2023-05-14T05:28:22;13.80;;;11.37;;
20884;SDS011;10602;48.000;9.654;2023-05-14T05:30:49;15.27;;;11.80;;
20884;SDS011;10602;48.000;9.654;2023-05-14T05:33:17;15.17;;;12.10;;
20884;SDS011;10602;48.000;9.654;2023-05-14T05:35:44;14.80;;;12.07;;
20884;SDS011;10602;48.000;9.654;2023-05-14T05:38:13;14.70;;;12.30;;
20884;SDS011;10602;48.000;9.654;2023-05-14T05:40:42;14.83;;;11.63;;
20884;SDS011;10602;48.000;9.654;2023-05-14T05:43:10;15.17;;;12.10;;
20884;SDS011;10602;48.000;9.654;2023-05-14T05:45:38;15.10;;;11.90;;
20884;SDS011;10602;48.000;9.654;2023-05-14T05:48:06;14.33;;;11.93;;
20884;SDS011;10602;48.000;9.654;2023-05-14T05:50:33;16.40;;;12.00;;
20884;SDS011;10602;48.000;9.654;2023-05-14T05:53:01;14.13;;;11.57;;
20884;SDS011;10602;48.000;9.654;2023-05-14T05:55:28;14.67;;;11.73;;
20884;SDS011;10602;48.000;9.654;2023-05-14T05:57:56;13.90;;;11.27;;
20884;SDS011;10602;48.000;9.654;2023-05-14T06:00:23;14.73;;;11.63;;
20884;SDS011;10602;48.000;9.654;2023-05-14T06:02:51;13.40;;;11.63;;
20884;SDS011;10602;48.000;9.654;2023-05-14T06:05:18;15.27;;;12.47;;
20884;SDS011;10602;48.000;9.654;2023-05-14T06:07:46;14.60;;;11.80;;
20884;SDS011;10602;48.000;9.654;2023-05-14T06:10:13;14.07;;;11.20;;
20884;SDS011;10602;48.000;9.654;2023-05-14T06:12:41;14.77;;;11.23;;
20884;SDS011;10602;48.000;9.654;2023-05-14T06:15:09;14.00;;;11.63;;
20884;SDS011;10602;48.000;9.654;2023-05-14T06:17:37;14.03;;;11.93;;
20884;SDS011;10602;48.000;9.654;2023-05-14T06:20:05;12.97;;;11.07;;
20884;SDS011;10602;48.000;9.654;2023-05-14T06:22:33;13.13;;;11.50;;
20884;SDS011;10602;48.000;9.654;2023-05-14T06:25:01;12.67;;;10.67;;
20884;SDS011;10602;48.000;9.654;2023-05-14T06:27:29;12.67;;;11.30;;
20884;SDS011;10602;48.000;9.654;2023-05-14T06:29:56;14.27;;;11.07;;
20884;SDS011;10602;48.000;9.654;2023-05-14T06:32:24;17.07;;;12.20;;
20884;SDS011;10602;48.000;9.654;2023-05-14T06:34:51;12.73;;;10.73;;
20884;SDS011;10602;48.000;9.654;2023-05-14T06:37:19;13.97;;;11.00;;
20884;SDS011;10602;48.000;9.654;2023-05-14T06:39:46;14.07;;;11.00;;
20884;SDS011;10602;48.000;9.654;2023-05-14T06:42:16;12.60;;;11.07;;
20884;SDS011;10602;48.000;9.654;2023-05-14T06:44:43;12.13;;;10.83;;
20884;SDS011;10602;48.000;9.654;2023-05-14T06:47:11;13.57;;;10.70;;
20884;SDS011;10602;48.000;9.654;2023-05-14T06:49:38;12.23;;;10.43;;
20884;SDS011;10602;48.000;9.654;2023-05-14T06:52:06;14.57;;;12.13;;
20884;SDS011;10602;48.000;9.654;2023-05-14T06:54:34;12.60;;;10.00;;
20884;SDS011;10602;48.000;9.654;2023-05-14T06:57:01;13.17;;;10.13;;
20884;SDS011;10602;48.000;9.654;2023-05-14T06:59:29;13.93;;;11.27;;
20884;SDS011;10602;48.000;9.654;2023-05-14T07:01:56;12.90;;;10.37;;
20884;SDS011;10602;48.000;9.654;2023-05-14T07:04:24;10.87;;;9.60;;
20884;SDS011;10602;48.000;9.654;2023-05-14T07:06:51;12.00;;;9.73;;
20884;SDS011;10602;48.000;9.654;2023-05-14T07:09:19;12.33;;;9.97;;
20884;SDS011;10602;48.000;9.654;2023-05-14T07:11:47;12.03;;;9.57;;
20884;SDS011;10602;48.000;9.654;2023-05-14T07:14:14;10.50;;;9.40;;
20884;SDS011;10602;48.000;9.654;2023-05-14T07:16:42;11.83;;;9.50;;
20884;SDS011;10602;48.000;9.654;2023-05-14T07:19:11;12.10;;;9.63;;
20884;SDS011;10602;48.000;9.654;2023-05-14T07:21:39;12.90;;;10.37;;
20884;SDS011;10602;48.000;9.654;2023-05-14T07:24:06;12.40;;;10.20;;
20884;SDS011;10602;48.000;9.654;2023-05-14T07:26:34;12.90;;;9.50;;
20884;SDS011;10602;48.000;9.654;2023-05-14T07:29:01;12.27;;;9.93;;
20884;SDS011;10602;48.000;9.654;2023-05-14T07:31:29;12.30;;;10.13;;
20884;SDS011;10602;48.000;9.654;2023-05-14T07:33:56;12.60;;;10.37;;
20884;SDS011;10602;48.000;9.654;2023-05-14T07:36:24;12.80;;;10.17;;
20884;SDS011;10602;48.000;9.654;2023-05-14T07:38:52;11.67;;;9.60;;
20884;SDS011;10602;48.000;9.654;2023-05-14T07:41:19;13.60;;;11.03;;
20884;SDS011;10602;48.000;9.654;2023-05-14T07:43:47;10.90;;;9.80;;
20884;SDS011;10602;48.000;9.654;2023-05-14T07:46:14;12.90;;;10.57;;
20884;SDS011;10602;48.000;9.654;2023-05-14T07:48:42;13.10;;;11.10;;
20884;SDS011;10602;48.000;9.654;2023-05-14T07:51:09;10.97;;;9.80;;
20884;SDS011;10602;48.000;9.654;2023-05-14T07:53:37;12.70;;;10.00;;
20884;SDS011;10602;48.000;9.654;2023-05-14T07:56:04;11.67;;;9.67;;
20884;SDS011;10602;48.000;9.654;2023-05-14T07:58:32;11.47;;;10.07;;
20884;SDS011;10602;48.000;9.654;2023-05-14T08:01:00;11.77;;;9.73;;
20884;SDS011;10602;48.000;9.654;2023-05-14T08:03:29;10.57;;;9.47;;
20884;SDS011;10602;48.000;9.654;2023-05-14T08:05:57;10.33;;;8.63;;
20884;SDS011;10602;48.000;9.654;2023-05-14T08:08:24;10.40;;;9.30;;
20884;SDS011;10602;48.000;9.654;2023-05-14T08:10:52;9.27;;;8.33;;
20884;SDS011;10602;48.000;9.654;2023-05-14T08:13:20;9.83;;;8.87;;
20884;SDS011;10602;48.000;9.654;2023-05-14T08:15:48;9.30;;;8.30;;
20884;SDS011;10602;48.000;9.654;2023-05-14T08:18:15;10.13;;;8.50;;
20884;SDS011;10602;48.000;9.654;2023-05-14T08:20:43;10.40;;;9.30;;
20884;SDS011;10602;48.000;9.654;2023-05-14T08:23:11;10.53;;;8.73;;
20884;SDS011;10602;48.000;9.654;2023-05-14T08:25:39;10.27;;;8.77;;
20884;SDS011;10602;48.000;9.654;2023-05-14T08:28:06;10.73;;;8.97;;
20884;SDS011;10602;48.000;9.654;2023-05-14T08:30:34;11.13;;;9.73;;
20884;SDS011;10602;48.000;9.654;2023-05-14T08:33:01;10.87;;;8.30;;
20884;SDS011;10602;48.000;9.654;2023-05-14T08:35:29;10.27;;;8.90;;
20884;SDS011;10602;48.000;9.654;2023-05-14T08:37:56;10.57;;;8.77;;
20884;SDS011;10602;48.000;9.654;2023-05-14T08:40:24;10.33;;;8.83;;
20884;SDS011;10602;48.000;9.654;2023-05-14T08:42:52;9.50;;;8.20;;
20884;SDS011;10602;48.000;9.654;2023-05-14T08:45:27;10.20;;;9.03;;
20884;SDS011;10602;48.000;9.654;2023-05-14T08:47:58;9.97;;;8.83;;
20884;SDS011;10602;48.000;9.654;2023-05-14T08:50:30;10.77;;;9.67;;
20884;SDS011;10602;48.000;9.654;2023-05-14T08:52:57;11.00;;;9.90;;
20884;SDS011;10602;48.000;9.654;2023-05-14T08:55:25;10.47;;;9.17;;
20884;SDS011;10602;48.000;9.654;2023-05-14T08:57:53;10.37;;;8.87;;
20884;SDS011;10602;48.000;9.654;2023-05-14T09:00:21;12.20;;;9.03;;
20884;SDS011;10602;48.000;9.654;2023-05-14T09:02:49;9.97;;;8.73;;
20884;SDS011;10602;48.000;9.654;2023-05-14T09:05:17;11.70;;;9.87;;
20884;SDS011;10602;48.000;9.654;2023-05-14T09:07:46;11.23;;;9.13;;
20884;SDS011;10602;48.000;9.654;2023-05-14T09:10:14;11.27;;;10.07;;
20884;SDS011;10602;48.000;9.654;2023-05-14T09:12:42;12.67;;;10.23;;
20884;SDS011;10602;48.000;9.654;2023-05-14T09:15:10;11.03;;;9.77;;
20884;SDS011;10602;48.000;9.654;2023-05-14T09:17:39;10.20;;;9.10;;
20884;SDS011;10602;48.000;9.654;2023-05-14T09:20:07;10.23;;;8.57;;
20884;SDS011;10602;48.000;9.654;2023-05-14T09:22:37;10.20;;;9.03;;
20884;SDS011;10602;48.000;9.654;2023-05-14T09:25:06;10.07;;;8.40;;
20884;SDS011;10602;48.000;9.654;2023-05-14T09:27:36;10.70;;;8.90;;
20884;SDS011;10602;48.000;9.654;2023-05-14T09:30:08;9.77;;;8.77;;
20884;SDS011;10602;48.000;9.654;2023-05-14T09:32:39;9.50;;;8.40;;
20884;SDS011;10602;48.000;9.654;2023-05-14T09:35:17;9.50;;;8.20;;
20884;SDS011;10602;48.000;9.654;2023-05-14T09:37:51;9.77;;;7.73;;
20884;SDS011;10602;48.000;9.654;2023-05-14T09:40:21;8.10;;;7.30;;
20884;SDS011;10602;48.000;9.654;2023-05-14T09:42:51;8.07;;;6.90;;
20884;SDS011;10602;48.000;9.654;2023-05-14T09:45:21;8.50;;;6.87;;
20884;SDS011;10602;48.000;9.654;2023-05-14T09:47:49;7.40;;;6.70;;
20884;SDS011;10602;48.000;9.654;2023-05-14T09:50:18;7.70;;;6.63;;
20884;SDS011;10602;48.000;9.654;2023-05-14T09:52:46;8.20;;;7.40;;
20884;SDS011;10602;48.000;9.654;2023-05-14T09:55:13;6.80;;;6.10;;
20884;SDS011;10602;48.000;9.654;2023-05-14T09:57:42;6.57;;;5.97;;
20884;SDS011;10602;48.000;9.654;2023-05-14T10:00:09;6.80;;;6.03;;
20884;SDS011;10602;48.000;9.654;2023-05-14T10:02:39;7.17;;;6.33;;
20884;SDS011;10602;48.000;9.654;2023-05-14T10:05:08;7.30;;;6.60;;
20884;SDS011;10602;48.000;9.654;2023-05-14T10:07:47;6.87;;;6.10;;
20884;SDS011;10602;48.000;9.654;2023-05-14T10:10:15;8.07;;;6.87;;
20884;SDS011;10602;48.000;9.654;2023-05-14T10:12:53;7.27;;;6.57;;
20884;SDS011;10602;48.000;9.654;2023-05-14T10:16:10;7.77;;;6.80;;
20884;SDS011;10602;48.000;9.654;2023-05-14T10:18:02;8.47;;;7.50;;
20884;SDS011;10602;48.000;9.654;2023-05-14T10:20:34;8.00;;;7.20;;
20884;SDS011;10602;48.000;9.654;2023-05-14T10:23:05;7.50;;;6.77;;
20884;SDS011;10602;48.000;9.654;2023-05-14T10:25:33;8.20;;;7.03;;
20884;SDS011;10602;48.000;9.654;2023-05-14T10:28:03;8.17;;;7.30;;
20884;SDS011;10602;48.000;9.654;2023-05-14T10:30:31;7.70;;;6.90;;
20884;SDS011;10602;48.000;9.654;2023-05-14T10:33:05;7.43;;;6.73;;
20884;SDS011;10602;48.000;9.654;2023-05-14T10:38:24;7.80;;;6.97;;
20884;SDS011;10602;48.000;9.654;2023-05-14T10:40:55;7.77;;;6.97;;
20884;SDS011;10602;48.000;9.654;2023-05-14T10:43:42;9.10;;;7.63;;
20884;SDS011;10602;48.000;9.654;2023-05-14T10:46:11;7.40;;;6.70;;
20884;SDS011;10602;48.000;9.654;2023-05-14T10:48:40;7.47;;;6.77;;
20884;SDS011;10602;48.000;9.654;2023-05-14T10:51:11;8.47;;;6.77;;
20884;SDS011;10602;48.000;9.654;2023-05-14T10:53:39;8.90;;;8.00;;
20884;SDS011;10602;48.000;9.654;2023-05-14T10:56:10;8.17;;;7.30;;
20884;SDS011;10602;48.000;9.654;2023-05-14T10:58:42;8.33;;;7.13;;
20884;SDS011;10602;48.000;9.654;2023-05-14T11:01:11;8.40;;;7.43;;
20884;SDS011;10602;48.000;9.654;2023-05-14T11:03:40;8.67;;;7.40;;
20884;SDS011;10602;48.000;9.654;2023-05-14T11:06:13;7.53;;;6.83;;
20884;SDS011;10602;48.000;9.654;2023-05-14T11:08:41;7.47;;;6.40;;
20884;SDS011;10602;48.000;9.654;2023-05-14T11:11:09;6.90;;;6.20;;
20884;SDS011;10602;48.000;9.654;2023-05-14T11:13:37;7.10;;;6.40;;
20884;SDS011;10602;48.000;9.654;2023-05-14T11:16:04;7.23;;;6.53;;
20884;SDS011;10602;48.000;9.654;2023-05-14T11:18:33;7.43;;;6.60;;
20884;SDS011;10602;48.000;9.654;2023-05-14T11:21:05;7.43;;;6.63;;
20884;SDS011;10602;48.000;9.654;2023-05-14T11:23:32;7.30;;;6.53;;
20884;SDS011;10602;48.000;9.654;2023-05-14T11:26:00;7.03;;;6.33;;
20884;SDS011;10602;48.000;9.654;2023-05-14T11:28:28;7.07;;;6.37;;
20884;SDS011;10602;48.000;9.654;2023-05-14T11:30:55;7.30;;;6.50;;
20884;SDS011;10602;48.000;9.654;2023-05-14T11:33:26;7.13;;;6.43;;
20884;SDS011;10602;48.000;9.654;2023-05-14T11:35:56;7.77;;;6.50;;
20884;SDS011;10602;48.000;9.654;2023-05-14T11:38:23;7.93;;;6.20;;
20884;SDS011;10602;48.000;9.654;2023-05-14T11:40:54;7.50;;;6.73;;
20884;SDS011;10602;48.000;9.654;2023-05-14T11:43:22;7.60;;;6.90;;
20884;SDS011;10602;48.000;9.654;2023-05-14T11:45:52;7.13;;;6.43;;
20884;SDS011;10602;48.000;9.654;2023-05-14T11:48:22;7.40;;;6.70;;
20884;SDS011;10602;48.000;9.654;2023-05-14T11:50:51;7.20;;;6.30;;
20884;SDS011;10602;48.000;9.654;2023-05-14T11:53:19;6.77;;;6.17;;
20884;SDS011;10602;48.000;9.654;2023-05-14T11:55:51;6.63;;;6.03;;
20884;SDS011;10602;48.000;9.654;2023-05-14T11:58:20;6.33;;;5.73;;
20884;SDS011;10602;48.000;9.654;2023-05-14T12:00:55;6.30;;;5.70;;
20884;SDS011;10602;48.000;9.654;2023-05-14T12:03:21;6.40;;;5.80;;
20884;SDS011;10602;48.000;9.654;2023-05-14T12:05:59;6.77;;;6.00;;
20884;SDS011;10602;48.000;9.654;2023-05-14T12:08:27;5.90;;;5.30;;
20884;SDS011;10602;48.000;9.654;2023-05-14T12:10:59;6.03;;;5.43;;
20884;SDS011;10602;48.000;9.654;2023-05-14T12:13:28;6.13;;;5.60;;
20884;SDS011;10602;48.000;9.654;2023-05-14T12:15:57;6.40;;;5.80;;
20884;SDS011;10602;48.000;9.654;2023-05-14T12:18:27;6.00;;;5.40;;
20884;SDS011;10602;48.000;9.654;2023-05-14T12:21:03;6.27;;;5.20;;
20884;SDS011;10602;48.000;9.654;2023-05-14T12:23:32;6.80;;;5.97;;
20884;SDS011;10602;48.000;9.654;2023-05-14T12:26:03;5.40;;;4.90;;
20884;SDS011;10602;48.000;9.654;2023-05-14T12:28:31;6.57;;;5.10;;
20884;SDS011;10602;48.000;9.654;2023-05-14T12:30:59;5.80;;;5.30;;
20884;SDS011;10602;48.000;9.654;2023-05-14T12:33:26;5.63;;;5.07;;
20884;SDS011;10602;48.000;9.654;2023-05-14T12:35:54;5.97;;;5.10;;
20884;SDS011;10602;48.000;9.654;2023-05-14T12:38:26;5.60;;;5.00;;
20884;SDS011;10602;48.000;9.654;2023-05-14T12:40:54;4.83;;;4.43;;
20884;SDS011;10602;48.000;9.654;2023-05-14T12:43:21;5.17;;;4.60;;
20884;SDS011;10602;48.000;9.654;2023-05-14T12:45:49;5.00;;;4.37;;
20884;SDS011;10602;48.000;9.654;2023-05-14T12:48:19;5.10;;;4.60;;
20884;SDS011;10602;48.000;9.654;2023-05-14T12:50:52;4.70;;;4.30;;
20884;SDS011;10602;48.000;9.654;2023-05-14T12:53:20;4.57;;;4.17;;
20884;SDS011;10602;48.000;9.654;2023-05-14T12:55:55;4.93;;;4.47;;
20884;SDS011;10602;48.000;9.654;2023-05-14T12:58:26;5.23;;;4.73;;
20884;SDS011;10602;48.000;9.654;2023-05-14T13:00:53;5.47;;;4.97;;
20884;SDS011;10602;48.000;9.654;2023-05-14T13:03:25;4.57;;;3.90;;
20884;SDS011;10602;48.000;9.654;2023-05-14T13:05:56;4.30;;;3.90;;
20884;SDS011;10602;48.000;9.654;2023-05-14T13:08:29;4.60;;;4.20;;
20884;SDS011;10602;48.000;9.654;2023-05-14T13:11:02;4.77;;;4.37;;
20884;SDS011;10602;48.000;9.654;2023-05-14T13:13:32;4.90;;;4.40;;
20884;SDS011;10602;48.000;9.654;2023-05-14T13:16:02;4.73;;;4.33;;
20884;SDS011;10602;48.000;9.654;2023-05-14T13:18:30;5.00;;;4.13;;
20884;SDS011;10602;48.000;9.654;2023-05-14T13:21:12;4.20;;;3.80;;
20884;SDS011;10602;48.000;9.654;2023-05-14T13:23:42;5.40;;;3.83;;
20884;SDS011;10602;48.000;9.654;2023-05-14T13:26:15;4.77;;;3.70;;
20884;SDS011;10602;48.000;9.654;2023-05-14T13:28:44;5.03;;;4.53;;
20884;SDS011;10602;48.000;9.654;2023-05-14T13:31:12;4.57;;;4.17;;
20884;SDS011;10602;48.000;9.654;2023-05-14T13:37:01;4.30;;;3.90;;
20884;SDS011;10602;48.000;9.654;2023-05-14T13:39:31;4.73;;;4.33;;
20884;SDS011;10602;48.000;9.654;2023-05-14T13:41:59;4.37;;;3.97;;
20884;SDS011;10602;48.000;9.654;2023-05-14T13:44:26;4.17;;;3.77;;
20884;SDS011;10602;48.000;9.654;2023-05-14T13:46:59;4.23;;;3.83;;
20884;SDS011;10602;48.000;9.654;2023-05-14T13:49:23;4.80;;;3.87;;
20884;SDS011;10602;48.000;9.654;2023-05-14T13:51:51;3.90;;;3.50;;
20884;SDS011;10602;48.000;9.654;2023-05-14T13:54:19;4.60;;;4.20;;
20884;SDS011;10602;48.000;9.654;2023-05-14T13:56:46;3.60;;;3.30;;
20884;SDS011;10602;48.000;9.654;2023-05-14T13:59:14;3.80;;;3.50;;
20884;SDS011;10602;48.000;9.654;2023-05-14T14:01:41;4.27;;;3.10;;
20884;SDS011;10602;48.000;9.654;2023-05-14T14:04:09;3.60;;;3.30;;
20884;SDS011;10602;48.000;9.654;2023-05-14T14:06:36;3.63;;;3.33;;
20884;SDS011;10602;48.000;9.654;2023-05-14T14:09:04;4.47;;;4.03;;
20884;SDS011;10602;48.000;9.654;2023-05-14T14:11:31;3.90;;;3.50;;
20884;SDS011;10602;48.000;9.654;2023-05-14T14:13:59;3.47;;;3.17;;
20884;SDS011;10602;48.000;9.654;2023-05-14T14:16:26;3.50;;;3.20;;
20884;SDS011;10602;48.000;9.654;2023-05-14T14:18:54;4.17;;;3.50;;
20884;SDS011;10602;48.000;9.654;2023-05-14T14:21:22;3.40;;;3.03;;
20884;SDS011;10602;48.000;9.654;2023-05-14T14:23:49;3.13;;;2.87;;
20884;SDS011;10602;48.000;9.654;2023-05-14T14:26:18;3.43;;;3.13;;
20884;SDS011;10602;48.000;9.654;2023-05-14T14:28:46;3.50;;;3.20;;
20884;SDS011;10602;48.000;9.654;2023-05-14T14:31:14;6.27;;;2.93;;
20884;SDS011;10602;48.000;9.654;2023-05-14T14:33:42;3.53;;;2.87;;
20884;SDS011;10602;48.000;9.654;2023-05-14T14:36:09;3.30;;;3.00;;
20884;SDS011;10602;48.000;9.654;2023-05-14T14:38:37;3.40;;;3.10;;
20884;SDS011;10602;48.000;9.654;2023-05-14T14:41:05;3.47;;;3.13;;
20884;SDS011;10602;48.000;9.654;2023-05-14T14:43:32;4.30;;;3.53;;
20884;SDS011;10602;48.000;9.654;2023-05-14T14:46:00;3.87;;;2.80;;
20884;SDS011;10602;48.000;9.654;2023-05-14T14:48:29;5.43;;;2.50;;
20884;SDS011;10602;48.000;9.654;2023-05-14T14:50:59;3.10;;;2.80;;
20884;SDS011;10602;48.000;9.654;2023-05-14T14:53:27;3.93;;;2.10;;
20884;SDS011;10602;48.000;9.654;2023-05-14T14:55:54;5.43;;;2.77;;
20884;SDS011;10602;48.000;9.654;2023-05-14T14:58:23;3.57;;;2.50;;
20884;SDS011;10602;48.000;9.654;2023-05-14T15:00:51;3.33;;;2.37;;
20884;SDS011;10602;48.000;9.654;2023-05-14T15:03:20;4.37;;;3.97;;